Time;durP1;ratioP1;P1;durP2;ratioP2;P2;SDS_P1;SDS_P2;PMS_P1;PMS_P2;Temp;Humidity;BMP_temperature;BMP_pressure;BME280_temperature;BME280_humidity;BME280_pressure;Samples;Min_cycle;Max_cycle;Signal;HPM_P1;HPM_P2
2021/10/23 00:00:19;;;;;;;;;8.00;6.25;;;;;13.76;60.69;102258.56;6313508;22;45213;-69
2021/10/23 00:02:55;;;;;;;;;8.00;6.00;;;;;13.57;60.37;102229.44;6312850;22;45448;-69
2021/10/23 00:05:21;;;;;;;;;5.25;5.25;;;;;13.67;60.71;102252.47;6341565;22;46307;-69
2021/10/23 00:07:51;;;;;;;;;7.00;5.25;;;;;13.62;60.53;102235.59;6340991;22;45306;-69
2021/10/23 00:10:22;;;;;;;;;7.00;7.00;;;;;13.65;60.33;102246.25;6313433;22;45275;-69
2021/10/23 00:12:47;;;;;;;;;5.00;5.00;;;;;13.62;60.40;102230.22;6312585;22;45197;-69
2021/10/23 00:15:16;;;;;;;;;5.25;5.25;;;;;13.71;60.40;102237.19;6313106;22;47933;-69
2021/10/23 00:17:46;;;;;;;;;7.75;6.50;;;;;13.62;60.16;102226.66;6341667;22;45431;-69
2021/10/23 00:20:15;;;;;;;;;5.25;5.25;;;;;13.63;60.23;102228.41;6312873;22;45400;-69
2021/10/23 00:22:40;;;;;;;;;7.00;6.75;;;;;13.65;60.19;102234.66;6312130;22;45532;-69
2021/10/23 00:25:18;;;;;;;;;7.00;7.00;;;;;13.52;60.11;102200.03;6341594;22;45291;-69
2021/10/23 00:27:55;;;;;;;;;5.00;5.00;;;;;13.79;60.22;102245.97;6313041;22;45446;-68
2021/10/23 00:30:22;;;;;;;;;8.50;7.00;;;;;13.90;59.84;102260.03;6339283;22;45366;-68
2021/10/23 00:32:57;;;;;;;;;6.00;6.00;;;;;13.83;59.91;102257.50;6341190;22;45200;-69
2021/10/23 00:35:23;;;;;;;;;6.50;6.50;;;;;13.61;59.60;102217.72;6341031;22;45368;-69
2021/10/23 00:38:01;;;;;;;;;;;;;;;;;;;;;
2021/10/23 00:40:36;;;;;;;;;6.50;5.75;;;;;13.75;60.02;102244.28;6340385;22;68827;-69
2021/10/23 00:43:20;;;;;;;;;;;;;;;;;;;;;
2021/10/23 00:45:55;;;;;;;;;5.50;5.50;;;;;13.65;59.65;102231.97;6340295;22;75255;-68
2021/10/23 00:48:20;;;;;;;;;6.25;6.00;;;;;13.76;59.81;102247.81;6341328;22;45447;-68
2021/10/23 00:50:55;;;;;;;;;5.25;4.75;;;;;13.70;59.73;102249.72;6339490;22;45333;-69
2021/10/23 00:53:22;;;;;;;;;7.75;6.00;;;;;13.74;59.90;102263.97;6340442;22;45446;-69
2021/10/23 00:55:48;;;;;;;;;5.50;5.00;;;;;13.49;59.78;102212.63;6341431;22;45580;-68
2021/10/23 00:58:22;;;;;;;;;6.50;6.50;;;;;13.63;59.84;102239.16;6341379;22;45368;-69
2021/10/23 01:00:52;;;;;;;;;6.00;5.00;;;;;13.66;59.81;102245.31;6341563;22;45243;-68
2021/10/23 01:03:20;;;;;;;;;4.75;4.75;;;;;13.38;59.71;102188.72;6341213;22;45167;-69
2021/10/23 01:05:50;;;;;;;;;5.00;5.00;;;;;13.60;59.38;102224.00;6341059;22;46332;-68
2021/10/23 01:08:18;;;;;;;;;6.00;6.00;;;;;13.70;59.61;102233.63;6341064;22;45396;-68
2021/10/23 01:10:56;;;;;;;;;;;;;;;;;;;;;
2021/10/23 01:13:25;;;;;;;;;5.50;4.25;;;;;13.58;59.67;102211.53;6334449;22;73349;-69
2021/10/23 01:15:58;;;;;;;;;5.50;5.25;;;;;13.82;59.52;102251.25;6340650;22;45476;-69
2021/10/23 01:18:38;;;;;;;;;;;;;;;;;;;;;
2021/10/23 01:21:16;;;;;;;;;;;;;;;;;;;;;
2021/10/23 01:23:42;;;;;;;;;7.75;5.00;;;;;13.68;59.42;102227.41;6338345;22;72925;-68
2021/10/23 01:26:16;;;;;;;;;5.75;4.50;;;;;13.83;59.71;102252.13;6340800;22;46446;-68
2021/10/23 01:28:43;;;;;;;;;4.75;4.75;;;;;13.74;59.61;102239.81;6340883;22;45468;-69
2021/10/23 01:31:11;;;;;;;;;5.25;5.25;;;;;13.44;59.79;102179.66;6341363;22;45297;-69
2021/10/23 01:33:44;;;;;;;;;6.75;6.00;;;;;13.63;59.81;102213.22;6341896;22;45416;-68
2021/10/23 01:36:13;;;;;;;;;6.50;5.75;;;;;13.80;59.62;102230.72;6341963;22;46754;-68
2021/10/23 01:39:06;;;;;;;;;;;;;;;;;;;;;
2021/10/23 01:41:44;;;;;;;;;4.00;4.00;;;;;13.80;59.56;102236.09;6341314;22;67849;-68
2021/10/23 01:44:22;;;;;;;;;5.00;5.00;;;;;13.77;59.47;102226.31;6342210;22;45192;-68
2021/10/23 01:47:08;;;;;;;;;;;;;;;;;;;;;
2021/10/23 01:49:34;;;;;;;;;6.00;5.75;;;;;13.70;59.26;102217.53;6340977;22;73107;-68
2021/10/23 01:52:09;;;;;;;;;6.25;6.25;;;;;13.51;59.56;102175.91;6313926;22;45283;-68
2021/10/23 01:54:44;;;;;;;;;6.00;6.00;;;;;13.65;59.40;102202.47;6341482;22;45790;-68
2021/10/23 01:57:20;;;;;;;;;11.50;7.00;;;;;13.57;59.27;102191.00;6342188;22;45306;-68
2021/10/23 01:59:48;;;;;;;;;5.75;5.00;;;;;13.73;59.25;102211.19;6342288;22;45330;-68
2021/10/23 02:02:33;;;;;;;;;;;;;;;;;;;;;
2021/10/23 02:05:05;;;;;;;;;5.00;5.00;;;;;13.74;59.32;102204.91;6341105;22;72678;-69
2021/10/23 02:07:36;;;;;;;;;6.25;6.25;;;;;13.68;59.36;102195.22;6341615;22;46217;-68
2021/10/23 02:10:05;;;;;;;;;6.50;3.75;;;;;13.69;59.23;102186.22;6342177;22;45480;-69
2021/10/23 02:12:43;;;;;;;;;4.00;4.00;;;;;13.78;59.16;102195.91;6341201;22;45330;-68
2021/10/23 02:15:12;;;;;;;;;5.00;4.75;;;;;13.88;58.86;102213.56;6342088;22;45097;-68
2021/10/23 02:17:37;;;;;;;;;4.75;4.00;;;;;13.85;58.87;102199.31;6313597;22;48014;-68
2021/10/23 02:20:18;;;;;;;;;;;;;;;;;;;;;
2021/10/23 02:22:52;;;;;;;;;3.00;3.00;;;;;13.89;59.41;102203.69;6340274;22;68994;-68
2021/10/23 02:25:18;;;;;;;;;4.00;4.00;;;;;13.78;59.10;102181.56;6342310;22;45290;-69
2021/10/23 02:27:48;;;;;;;;;7.00;5.75;;;;;13.74;59.49;102182.56;6313638;22;47016;-69
2021/10/23 02:30:14;;;;;;;;;6.00;5.75;;;;;13.74;59.12;102180.78;6342129;22;45671;-69
2021/10/23 02:32:42;;;;;;;;;5.25;5.25;;;;;13.93;58.91;102213.44;6341875;22;45318;-69
2021/10/23 02:35:10;;;;;;;;;8.25;6.00;;;;;13.74;58.88;102172.72;6341949;22;45255;-69
2021/10/23 02:37:51;;;;;;;;;;;;;;;;;;;;;
2021/10/23 02:40:27;;;;;;;;;5.50;5.50;;;;;13.77;59.10;102187.88;6340747;22;71372;-69
2021/10/23 02:42:57;;;;;;;;;5.50;4.25;;;;;13.52;59.10;102146.38;6341761;22;45324;-69
2021/10/23 02:45:25;;;;;;;;;5.25;5.25;;;;;13.86;59.27;102210.00;6313662;22;45479;-69
2021/10/23 02:47:56;;;;;;;;;5.50;5.00;;;;;13.80;59.15;102204.78;6342185;22;45463;-69
2021/10/23 02:50:36;;;;;;;;;4.00;3.75;;;;;13.57;59.22;102169.53;6313360;22;45259;-69
2021/10/23 02:53:14;;;;;;;;;4.50;4.50;;;;;13.79;59.46;102208.38;6312842;22;45357;-69
2021/10/23 02:55:48;;;;;;;;;6.00;6.00;;;;;13.67;59.32;102195.25;6341939;22;45243;-68
2021/10/23 02:58:16;;;;;;;;;5.50;4.75;;;;;13.66;59.58;102196.16;6339825;22;48499;-69
2021/10/23 03:00:41;;;;;;;;;6.25;5.25;;;;;13.80;59.35;102214.63;6313545;22;45664;-68
2021/10/23 03:03:16;;;;;;;;;5.75;5.75;;;;;13.56;58.96;102176.69;6341704;22;45180;-69
2021/10/23 03:05:52;;;;;;;;;5.00;5.00;;;;;13.53;59.30;102174.06;6313239;22;45418;-69
2021/10/23 03:08:22;;;;;;;;;4.25;4.25;;;;;13.49;59.45;102173.25;6341709;22;46400;-68
2021/10/23 03:10:47;;;;;;;;;4.50;4.00;;;;;13.62;59.33;102187.28;6341341;22;45176;-68
2021/10/23 03:13:20;;;;;;;;;6.00;5.25;;;;;13.70;59.58;102205.91;6341980;22;45155;-68
2021/10/23 03:15:59;;;;;;;;;4.00;4.00;;;;;13.66;59.99;102205.06;6313291;22;45425;-68
2021/10/23 03:18:34;;;;;;;;;;;;;;;;;;;;;
2021/10/23 03:21:19;;;;;;;;;5.00;5.00;;;;;13.57;59.60;102186.50;6340490;22;72889;-68
2021/10/23 03:23:52;;;;;;;;;4.75;4.00;;;;;13.62;59.90;102187.28;6340953;22;45209;-68
2021/10/23 03:26:19;;;;;;;;;4.00;4.00;;;;;13.81;59.79;102227.13;6341957;22;45192;-68
2021/10/23 03:28:55;;;;;;;;;;;;;;;;;;;;;
2021/10/23 03:31:33;;;;;;;;;8.00;6.00;;;;;13.77;59.49;102214.72;6340154;22;71543;-68
2021/10/23 03:34:04;;;;;;;;;7.50;4.75;;;;;13.58;59.47;102182.03;6313493;22;45380;-68
2021/10/23 03:36:40;;;;;;;;;7.75;6.50;;;;;13.42;59.31;102155.53;6341165;22;45642;-69
2021/10/23 03:39:16;;;;;;;;;4.00;4.00;;;;;13.49;59.39;102178.63;6341712;22;45357;-68
2021/10/23 03:42:10;;;;;;;;;5.50;4.25;;;;;13.81;59.61;102224.44;6313186;22;45188;-69
2021/10/23 03:44:38;;;;;;;;;6.50;5.00;;;;;13.75;59.46;102209.38;6341616;22;45085;-69
2021/10/23 03:47:16;;;;;;;;;;;;;;;;;;;;;
2021/10/23 03:49:48;;;;;;;;;4.50;3.25;;;;;13.51;59.31;102165.19;6335921;22;75333;-69
2021/10/23 03:52:26;;;;;;;;;4.50;4.50;;;;;13.73;59.32;102189.72;6312601;22;45581;-68
2021/10/23 03:55:10;;;;;;;;;6.50;3.75;;;;;13.88;59.48;102221.63;6312533;22;45492;-68
2021/10/23 03:57:41;;;;;;;;;5.75;5.50;;;;;13.89;59.46;102214.44;6341741;22;45261;-68
2021/10/23 04:00:15;;;;;;;;;3.25;3.25;;;;;13.78;59.36;102195.00;6313097;22;45627;-69
2021/10/23 04:02:45;;;;;;;;;4.00;4.00;;;;;13.73;59.04;102187.03;6312711;22;45749;-68
2021/10/23 04:05:18;;;;;;;;;5.00;4.00;;;;;13.90;59.16;102216.22;6341782;22;45242;-68
2021/10/23 04:07:56;;;;;;;;;;;;;;;;;;;;;
2021/10/23 04:10:27;;;;;;;;;2.75;2.75;;;;;13.64;58.48;102161.31;6340334;22;73879;-68
2021/10/23 04:13:03;;;;;;;;;;;;;;;;;;;;;
2021/10/23 04:15:33;;;;;;;;;3.50;3.50;;;;;13.77;58.78;102175.34;6340563;22;69284;-69
2021/10/23 04:17:59;;;;;;;;;3.25;3.25;;;;;13.85;58.97;102196.66;6341596;22;45096;-69
2021/10/23 04:20:37;;;;;;;;;;;;;;;;;;;;;
2021/10/23 04:23:05;;;;;;;;;5.00;5.00;;;;;13.78;58.83;102176.22;6338896;22;72781;-69
2021/10/23 04:25:42;;;;;;;;;;;;;;;;;;;;;
2021/10/23 04:28:16;;;;;;;;;5.00;5.00;;;;;13.69;59.23;102169.25;6340517;22;71943;-68
2021/10/23 04:30:43;;;;;;;;;5.25;5.00;;;;;13.66;58.83;102164.81;6341346;22;45373;-69
2021/10/23 04:33:14;;;;;;;;;5.00;5.00;;;;;13.67;58.82;102163.06;6341259;22;45276;-68
2021/10/23 04:35:46;;;;;;;;;6.75;5.00;;;;;13.67;59.25;102169.28;6312683;22;45413;-68
2021/10/23 04:38:14;;;;;;;;;6.25;5.00;;;;;13.68;59.07;102163.03;6340064;22;45160;-68
2021/10/23 04:40:59;;;;;;;;;6.00;6.00;;;;;13.72;59.36;102177.25;6340276;22;46255;-68
2021/10/23 04:43:27;;;;;;;;;5.00;5.00;;;;;13.87;59.44;102198.34;6340768;22;45314;-69
2021/10/23 04:45:53;;;;;;;;;6.00;5.00;;;;;13.80;58.93;102195.84;6340749;22;45146;-69
2021/10/23 04:48:18;;;;;;;;;5.00;5.00;;;;;13.55;59.07;102150.78;6341410;22;45432;-69
2021/10/23 04:50:54;;;;;;;;;;;;;;;;;;;;;
2021/10/23 04:53:19;;;;;;;;;7.25;6.00;;;;;13.70;59.20;102174.59;6339072;22;72172;-68
2021/10/23 04:55:45;;;;;;;;;6.50;5.00;;;;;13.68;59.53;102176.44;6341253;22;45234;-69
2021/10/23 04:58:20;;;;;;;;;6.75;4.75;;;;;13.78;59.43;102195.91;6341276;22;45266;-69
2021/10/23 05:00:46;;;;;;;;;4.00;3.25;;;;;13.81;59.28;102205.66;6341026;22;45407;-69
2021/10/23 05:03:11;;;;;;;;;6.25;5.00;;;;;13.62;59.26;102175.69;6340059;22;45301;-68
2021/10/23 05:05:37;;;;;;;;;5.00;5.00;;;;;13.74;59.14;102198.69;6339101;22;45689;-68
2021/10/23 05:08:03;;;;;;;;;5.25;4.00;;;;;13.77;59.62;102201.31;6340472;22;45388;-68
2021/10/23 05:10:31;;;;;;;;;5.75;5.00;;;;;13.73;59.21;102199.59;6340541;22;46227;-68
2021/10/23 05:12:56;;;;;;;;;4.00;4.00;;;;;13.53;59.14;102166.00;6312448;22;45445;-68
2021/10/23 05:15:25;;;;;;;;;6.00;6.00;;;;;13.77;59.54;102206.66;6341213;22;45540;-69
2021/10/23 05:17:51;;;;;;;;;8.00;5.00;;;;;13.64;59.78;102187.25;6340942;22;45410;-69
2021/10/23 05:20:16;;;;;;;;;6.75;6.75;;;;;13.65;59.53;102192.59;6340908;22;46245;-68
2021/10/23 05:22:42;;;;;;;;;5.75;5.00;;;;;13.45;59.62;102166.22;6339736;22;45456;-68
2021/10/23 05:25:08;;;;;;;;;5.25;5.00;;;;;13.64;59.55;102195.31;6341138;22;45517;-68
2021/10/23 05:27:33;;;;;;;;;8.00;6.75;;;;;13.70;59.51;102216.66;6340916;22;45444;-68
2021/10/23 05:29:59;;;;;;;;;6.50;5.25;;;;;13.59;59.47;102197.22;6340785;22;45388;-68
2021/10/23 05:32:24;;;;;;;;;7.50;6.50;;;;;13.43;59.54;102164.47;6312008;22;45310;-68
2021/10/23 05:34:50;;;;;;;;;8.00;5.50;;;;;13.42;60.28;102160.03;6312759;22;45208;-68
2021/10/23 05:37:18;;;;;;;;;6.75;5.25;;;;;13.60;60.05;102201.66;6312395;22;45345;-68
2021/10/23 05:39:46;;;;;;;;;5.00;5.00;;;;;13.55;59.79;102183.00;6340358;22;46077;-68
2021/10/23 05:42:19;;;;;;;;;6.50;4.00;;;;;13.78;59.90;102217.38;6341432;22;45253;-68
2021/10/23 05:44:47;;;;;;;;;6.00;5.00;;;;;13.64;59.71;102198.00;6341050;22;45094;-69
2021/10/23 05:47:12;;;;;;;;;6.75;5.25;;;;;13.62;59.78;102191.78;6340904;22;45216;-69
2021/10/23 05:49:38;;;;;;;;;6.50;5.00;;;;;13.47;59.69;102169.72;6312153;22;47575;-69
2021/10/23 05:52:06;;;;;;;;;4.00;4.00;;;;;13.68;60.10;102205.03;6340749;22;45154;-69
2021/10/23 05:54:37;;;;;;;;;8.00;5.00;;;;;13.53;59.92;102184.78;6340417;22;45294;-69
2021/10/23 05:57:06;;;;;;;;;5.25;5.25;;;;;13.77;60.05;102222.78;6340639;22;45635;-69
2021/10/23 05:59:32;;;;;;;;;5.75;5.25;;;;;13.83;59.74;102227.97;6340389;22;46400;-69
2021/10/23 06:02:08;;;;;;;;;6.50;5.00;;;;;13.61;59.58;102193.56;6312447;22;45675;-69
2021/10/23 06:04:36;;;;;;;;;7.00;6.00;;;;;13.60;59.88;102201.66;6340858;22;45200;-69
2021/10/23 06:07:04;;;;;;;;;7.00;7.00;;;;;13.49;59.71;102186.66;6340024;22;45463;-69
2021/10/23 06:09:38;;;;;;;;;4.00;4.00;;;;;13.59;59.82;102206.13;6340061;22;46090;-69
2021/10/23 06:12:06;;;;;;;;;5.25;4.50;;;;;13.46;59.62;102177.81;6312066;22;45426;-69
2021/10/23 06:14:31;;;;;;;;;5.00;3.75;;;;;13.78;59.77;102240.63;6311940;22;45347;-69
2021/10/23 06:16:57;;;;;;;;;4.25;4.00;;;;;13.74;59.73;102230.88;6340180;22;45443;-69
2021/10/23 06:19:24;;;;;;;;;3.75;3.50;;;;;13.64;59.89;102219.47;6313448;22;47556;-69
2021/10/23 06:55:08;;;;;;;;;5.75;5.75;;;;;13.85;59.58;102277.16;6259767;22;47307;31
2021/10/23 06:57:57;;;;;;;;;5.00;5.00;;;;;13.80;59.78;102279.94;6208639;22;45467;-69
2021/10/23 07:00:27;;;;;;;;;3.75;3.00;;;;;13.62;59.73;102243.63;6187840;22;45760;-69
2021/10/23 07:02:53;;;;;;;;;5.00;5.00;;;;;13.79;59.54;102277.28;6197476;22;45427;-69
2021/10/23 07:05:25;;;;;;;;;4.00;4.00;;;;;13.68;60.04;102262.31;6219387;22;47836;-69
2021/10/23 07:08:01;;;;;;;;;;;;;;;;;;;;;
2021/10/23 07:10:37;;;;;;;;;;;;;;;;;;;;;
2021/10/23 07:13:11;;;;;;;;;5.50;5.25;;;;;13.62;60.05;102270.47;6245731;22;71449;-69
2021/10/23 07:15:39;;;;;;;;;3.75;3.75;;;;;13.79;60.22;102291.59;6247541;22;46320;-68
2021/10/23 07:18:07;;;;;;;;;6.50;5.00;;;;;13.56;60.16;102254.50;6219868;22;45383;-68
2021/10/23 07:20:33;;;;;;;;;6.75;5.00;;;;;13.58;60.42;102255.38;6247931;22;45201;-69
2021/10/23 07:23:03;;;;;;;;;6.75;5.00;;;;;13.61;60.47;102262.44;6245872;22;45237;-69
2021/10/23 07:25:30;;;;;;;;;6.00;5.50;;;;;13.64;60.02;102273.13;6244634;22;45334;-69
2021/10/23 07:28:03;;;;;;;;;5.25;4.75;;;;;13.66;60.18;102277.53;6246909;22;45659;-69
2021/10/23 07:30:36;;;;;;;;;3.50;3.00;;;;;13.61;60.24;102278.56;6246988;22;45434;-69
2021/10/23 07:33:11;;;;;;;;;;;;;;;;;;;;;
2021/10/23 07:35:37;;;;;;;;;7.00;4.75;;;;;13.85;60.00;102323.66;6236320;22;75324;-69
2021/10/23 07:38:18;;;;;;;;;6.00;6.00;;;;;13.84;59.59;102329.06;6247337;22;45255;-68
2021/10/23 07:40:54;;;;;;;;;;;;;;;;;;;;;
2021/10/23 07:43:30;;;;;;;;;7.50;4.75;;;;;13.85;59.86;102330.84;6243876;22;72855;-69
2021/10/23 07:45:57;;;;;;;;;2.25;2.00;;;;;13.70;60.21;102306.09;6219312;22;47932;-69
2021/10/23 07:48:25;;;;;;;;;2.25;2.25;;;;;13.55;59.60;102287.63;6214719;22;45436;-69
2021/10/23 07:50:51;;;;;;;;;2.75;2.75;;;;;13.85;59.55;102341.59;6220002;22;45389;-69
2021/10/23 07:53:29;;;;;;;;;;;;;;;;;;;;;
2021/10/23 07:55:54;;;;;;;;;5.00;5.00;;;;;13.62;60.10;102308.03;6255995;22;73930;-69
2021/10/23 07:58:25;;;;;;;;;9.25;7.25;;;;;13.75;60.14;102331.94;6277683;22;45271;-69
2021/10/23 08:00:50;;;;;;;;;8.50;8.00;;;;;13.65;60.18;102318.72;6278910;22;45264;-69
2021/10/23 08:03:16;;;;;;;;;8.25;8.25;;;;;13.94;60.21;102357.47;6250208;22;45323;-69
2021/10/23 08:05:41;;;;;;;;;9.75;8.00;;;;;13.79;60.18;102328.28;6278671;22;45340;-69
2021/10/23 08:08:07;;;;;;;;;8.25;7.00;;;;;13.76;60.31;102321.16;6278013;22;45330;-69
2021/10/23 08:10:34;;;;;;;;;9.25;9.25;;;;;13.91;60.11;102344.13;6278372;22;45274;-69
2021/10/23 08:13:00;;;;;;;;;9.50;9.00;;;;;13.84;60.38;102334.44;6250666;22;45192;-69
2021/10/23 08:15:36;;;;;;;;;;;;;;;;;;;;;
2021/10/23 08:18:03;;;;;;;;;4.00;3.00;;;;;14.04;60.43;102353.69;6277059;22;72915;-69
2021/10/23 08:20:42;;;;;;;;;2.75;2.75;;;;;13.94;60.20;102329.78;6277807;22;45401;-69
2021/10/23 08:23:11;;;;;;;;;3.25;3.25;;;;;13.95;59.90;102327.06;6275252;22;45268;-69
2021/10/23 08:25:39;;;;;;;;;3.00;3.00;;;;;13.88;59.83;102314.66;6277871;22;45190;-69
2021/10/23 08:28:05;;;;;;;;;6.00;4.00;;;;;14.03;59.68;102341.19;6250499;22;45739;-69
2021/10/23 08:30:31;;;;;;;;;5.00;3.00;;;;;14.18;59.60;102363.25;6278670;22;45290;-69
2021/10/23 08:32:58;;;;;;;;;4.25;3.75;;;;;14.11;59.78;102346.38;6277987;22;45450;-69
2021/10/23 08:35:27;;;;;;;;;5.50;5.50;;;;;13.90;59.64;102316.41;6277942;22;45283;-69
2021/10/23 08:37:55;;;;;;;;;7.50;6.25;;;;;13.95;59.76;102319.00;6249868;22;45275;-69
2021/10/23 08:40:23;;;;;;;;;9.00;9.00;;;;;13.87;59.67;102313.78;6275757;22;45489;-69
2021/10/23 08:42:52;;;;;;;;;12.00;10.00;;;;;13.97;59.55;102333.25;6277238;22;45335;-69
2021/10/23 08:45:19;;;;;;;;;8.00;7.50;;;;;14.01;59.67;102331.41;6278025;22;46091;-69
2021/10/23 08:47:49;;;;;;;;;6.75;6.75;;;;;14.06;59.90;102343.78;6277792;22;45453;-69
2021/10/23 08:50:24;;;;;;;;;9.00;8.00;;;;;14.00;59.84;102322.47;6277962;22;45331;-69
2021/10/23 08:52:55;;;;;;;;;8.00;7.75;;;;;14.00;59.93;102319.78;6277068;22;45409;-69
2021/10/23 08:55:21;;;;;;;;;8.25;7.00;;;;;14.03;59.61;102319.72;6275622;22;48063;-69
2021/10/23 08:57:49;;;;;;;;;12.00;8.25;;;;;14.30;59.84;102364.78;6278354;22;45430;-69
2021/10/23 09:00:15;;;;;;;;;9.25;8.50;;;;;14.26;59.84;102353.22;6277425;22;45927;-69
2021/10/23 09:02:41;;;;;;;;;11.25;8.00;;;;;14.15;59.68;102334.69;6250118;22;45260;-69
2021/10/23 09:05:15;;;;;;;;;8.00;7.50;;;;;14.29;59.19;102358.53;6249932;22;47075;-69
2021/10/23 09:07:52;;;;;;;;;;;;;;;;;;;;;
2021/10/23 09:10:30;;;;;;;;;11.00;8.00;;;;;14.08;59.22;102303.47;6274727;22;67910;-69
2021/10/23 09:13:10;;;;;;;;;8.75;8.00;;;;;14.42;59.08;102353.78;6249335;22;45745;-69
2021/10/23 09:15:41;;;;;;;;;7.50;7.25;;;;;14.25;59.32;102325.50;6276164;22;48253;-69
2021/10/23 09:18:10;;;;;;;;;9.00;7.75;;;;;14.34;59.26;102335.13;6278319;22;45373;-69
2021/10/23 09:20:40;;;;;;;;;8.25;8.25;;;;;14.51;59.33;102353.56;6250527;22;45305;-69
2021/10/23 09:23:17;;;;;;;;;9.00;9.00;;;;;14.56;59.66;102364.19;6277322;22;45447;-69
2021/10/23 09:25:43;;;;;;;;;8.00;6.25;;;;;14.27;59.56;102303.97;6250149;22;46138;-69
2021/10/23 09:28:13;;;;;;;;;8.00;8.00;;;;;14.39;59.26;102326.97;6278710;22;45448;-69
2021/10/23 09:30:43;;;;;;;;;8.00;8.00;;;;;14.61;59.47;102360.50;6278171;22;45307;-69
2021/10/23 09:33:11;;;;;;;;;6.00;6.00;;;;;14.44;59.00;102335.81;6277105;22;45225;-69
2021/10/23 09:35:41;;;;;;;;;7.00;6.75;;;;;14.42;59.26;102329.59;6278339;22;46310;-69
2021/10/23 09:38:08;;;;;;;;;11.00;8.50;;;;;14.24;59.53;102295.97;6277229;22;45390;-69
2021/10/23 09:40:38;;;;;;;;;8.00;8.00;;;;;14.44;59.36;102322.38;6250578;22;45315;-69
2021/10/23 09:43:30;;;;;;;;;10.75;9.75;;;;;14.45;59.18;102327.72;6277534;22;45346;-69
2021/10/23 09:45:56;;;;;;;;;10.00;10.00;;;;;14.70;59.32;102359.44;6275415;22;48100;-69
2021/10/23 09:48:34;;;;;;;;;11.00;11.00;;;;;14.35;59.30;102301.09;6276819;22;45178;-69
2021/10/23 09:54:05;;;;;;;;;15.75;12.50;;;;;14.58;59.25;102336.38;6256347;22;45286;-68
2021/10/23 09:56:35;;;;;;;;;13.75;13.50;;;;;14.53;59.20;102327.53;6276546;22;47895;-68
2021/10/23 09:59:09;;;;;;;;;12.50;12.50;;;;;14.55;59.30;102324.81;6278750;22;45268;-68
2021/10/23 10:01:51;;;;;;;;;17.50;16.25;;;;;14.73;59.23;102342.31;6277008;22;45363;-68
2021/10/23 10:04:24;;;;;;;;;18.25;15.00;;;;;14.64;59.51;102322.81;6273882;22;45717;-68
2021/10/23 10:07:12;;;;;;;;;;;;;;;;;;;;;
2021/10/23 10:09:43;;;;;;;;;14.50;13.25;;;;;14.68;59.42;102331.69;6272964;22;72888;-68
2021/10/23 10:12:14;;;;;;;;;18.25;15.50;;;;;14.80;58.93;102347.53;6274653;22;45698;-68
2021/10/23 10:14:43;;;;;;;;;15.25;15.25;;;;;14.84;58.69;102358.22;6245647;22;45413;-68
2021/10/23 10:17:21;;;;;;;;;12.50;12.00;;;;;14.86;58.90;102354.56;6273894;22;46437;-68
2021/10/23 10:20:00;;;;;;;;;15.50;13.50;;;;;14.90;58.60;102352.66;6246525;22;45364;-69
2021/10/23 10:22:47;;;;;;;;;;;;;;;;;;;;;
2021/10/23 10:25:33;;;;;;;;;16.50;15.00;;;;;14.70;58.95;102323.59;6266072;22;73355;-71
2021/10/23 10:28:16;;;;;;;;;17.75;15.75;;;;;14.73;58.49;102329.75;6273786;22;46392;-69
2021/10/23 10:34:11;;;;;;;;;;;;;;;;;;;;;
2021/10/23 10:37:26;;;;;;;;;;;;;;;;;;;;;
2021/10/23 10:43:13;;;;;;;;;16.00;14.00;;;;;14.97;58.96;102357.00;6263758;22;45500;-69
2021/10/23 10:45:52;;;;;;;;;19.50;18.00;;;;;14.99;58.90;102355.13;6278942;22;45360;-69
2021/10/23 10:48:40;;;;;;;;;;;;;;;;;;;;;
2021/10/23 10:51:25;;;;;;;;;;;;;;;;;;;;;
2021/10/23 10:54:07;;;;;;;;;;;;;;;;;;;;;
2021/10/23 11:00:21;;;;;;;;;15.75;14.50;;;;;15.01;58.12;102329.97;6287563;22;45581;-69
2021/10/23 11:06:45;;;;;;;;;20.00;16.00;;;;;15.12;58.12;102331.50;6197427;22;45383;-69
2021/10/23 11:09:15;;;;;;;;;14.75;10.25;;;;;15.12;58.27;102329.69;6188682;22;45394;-69
2021/10/23 11:11:49;;;;;;;;;8.50;5.00;;;;;15.19;58.38;102330.41;6256857;22;45355;-69
2021/10/23 11:14:26;;;;;;;;;8.50;8.00;;;;;15.18;58.06;102320.56;6281789;22;48116;-69
2021/10/23 11:17:28;;;;;;;;;;;;;;;;;;;;;
2021/10/23 11:26:41;;;;;;;;;;;;;;;;;;;;;
2021/10/23 11:29:55;;;;;;;;;5.50;5.50;;;;;15.39;57.61;102311.03;6308760;22;72228;-69
2021/10/23 11:32:43;;;;;;;;;;;;;;;;;;;;;
2021/10/23 11:35:14;;;;;;;;;9.00;9.00;;;;;15.41;57.56;102298.44;6308805;22;72845;-69
2021/10/23 11:41:18;;;;;;;;;12.75;7.00;;;;;15.46;57.17;102288.41;6309081;22;45376;-69
2021/10/23 11:43:49;;;;;;;;;8.25;6.50;;;;;15.66;57.00;102312.06;6308641;22;45226;-69
2021/10/23 11:46:39;;;;;;;;;9.00;9.00;;;;;15.56;56.91;102278.28;6309702;22;45333;-69
2021/10/23 11:49:10;;;;;;;;;7.00;6.00;;;;;15.63;56.60;102281.66;6308677;22;46693;-69
2021/10/23 11:52:12;;;;;;;;;;;;;;;;;;;;;
2021/10/23 11:55:19;;;;;;;;;;;;;;;;;;;;;
2021/10/23 12:04:21;;;;;;;;;;;;;;;;;;;;;
2021/10/23 12:06:49;;;;;;;;;6.25;6.00;;;;;15.80;55.17;102300.91;6308216;22;67553;-69
2021/10/23 12:09:34;;;;;;;;;;;;;;;;;;;;;
2021/10/23 12:12:23;;;;;;;;;4.50;4.50;;;;;15.80;54.94;102286.59;6308647;22;73650;-69
2021/10/23 12:15:37;;;;;;;;;;;;;;;;;;;;;
2021/10/23 12:18:27;;;;;;;;;4.00;3.00;;;;;15.68;54.42;102272.53;6308506;22;69066;-69
2021/10/23 12:21:43;;;;;;;;;;;;;;;;;;;;;
2021/10/23 12:24:59;;;;;;;;;7.25;5.00;;;;;15.75;53.86;102286.69;6308150;22;75215;-69
2021/10/23 12:27:43;;;;;;;;;6.25;6.25;;;;;15.68;54.38;102275.22;6308550;22;45287;-69
2021/10/23 12:30:39;;;;;;;;;8.25;6.25;;;;;15.64;54.45;102259.22;6310111;22;45317;-69
2021/10/23 12:33:32;;;;;;;;;11.50;8.00;;;;;15.54;54.45;102245.16;6308970;22;45364;-69
2021/10/23 12:39:43;;;;;;;;;;;;;;;;;;;;;
2021/10/23 12:42:39;;;;;;;;;;;;;;;;;;;;;
2021/10/23 12:48:54;;;;;;;;;5.00;3.75;;;;;15.61;53.92;102251.22;6285139;22;45399;-69
2021/10/23 12:51:34;;;;;;;;;;;;;;;;;;;;;
2021/10/23 12:54:17;;;;;;;;;;;;;;;;;;;;;
2021/10/23 12:57:05;;;;;;;;;;;;;;;;;;;;;
2021/10/23 12:59:41;;;;;;;;;;;;;;;;;;;;;
2021/10/23 13:02:39;;;;;;;;;;;;;;;;;;;;;
2021/10/23 13:07:53;;;;;;;;;8.50;6.00;;;;;15.94;53.89;102287.06;6244916;22;45449;-69
2021/10/23 13:10:19;;;;;;;;;7.00;6.50;;;;;15.93;54.05;102287.97;6309266;22;45275;-69
2021/10/23 13:12:45;;;;;;;;;6.50;6.50;;;;;15.90;53.54;102285.38;6309330;22;45236;-69
2021/10/23 13:15:14;;;;;;;;;7.25;6.00;;;;;15.87;52.97;102283.69;6309996;22;45241;-69
2021/10/23 13:17:40;;;;;;;;;9.50;6.75;;;;;15.83;53.18;102284.69;6309231;22;45216;-69
2021/10/23 13:20:08;;;;;;;;;7.25;6.00;;;;;15.80;53.43;102279.38;6309617;22;46277;-69
2021/10/23 13:22:34;;;;;;;;;9.00;7.25;;;;;15.82;54.10;102277.56;6308674;22;45507;-69
2021/10/23 13:24:59;;;;;;;;;11.00;9.00;;;;;15.78;54.44;102267.78;6309436;22;45251;-67
2021/10/23 13:27:25;;;;;;;;;9.75;8.25;;;;;15.82;54.64;102269.47;6310299;22;45540;-67
2021/10/23 13:29:54;;;;;;;;;8.50;8.50;;;;;15.83;54.79;102260.44;6310465;22;45916;-67
2021/10/23 13:32:21;;;;;;;;;9.25;9.25;;;;;15.85;54.43;102255.88;6309842;22;45160;-67
2021/10/23 13:34:47;;;;;;;;;9.00;8.50;;;;;15.85;54.19;102263.09;6309421;22;45264;-66
2021/10/23 13:37:12;;;;;;;;;11.75;9.00;;;;;15.87;54.50;102262.13;6310491;22;45385;-66
2021/10/23 13:39:38;;;;;;;;;11.00;9.00;;;;;15.91;54.51;102271.00;6310622;22;45254;-67
2021/10/23 13:42:04;;;;;;;;;9.50;7.75;;;;;15.92;54.47;102265.56;6310357;22;45250;-67
2021/10/23 13:44:31;;;;;;;;;7.00;5.75;;;;;15.90;54.57;102259.34;6310718;22;45255;-67
2021/10/23 13:46:56;;;;;;;;;9.50;9.50;;;;;15.94;54.14;102257.44;6310248;22;45206;-67
2021/10/23 13:49:21;;;;;;;;;9.25;7.00;;;;;15.89;54.04;102249.50;6310525;22;45303;-66
2021/10/23 13:51:47;;;;;;;;;7.00;7.00;;;;;15.94;53.90;102257.44;6309821;22;45441;-67
2021/10/23 13:54:19;;;;;;;;;5.25;5.25;;;;;15.88;53.52;102238.78;6310031;22;45326;-67
2021/10/23 13:57:05;;;;;;;;;5.00;5.00;;;;;15.65;53.64;102207.13;6305897;22;45694;-67
2021/10/23 13:59:30;;;;;;;;;5.50;5.00;;;;;15.59;54.12;102183.13;6305302;22;46616;-67
2021/10/23 14:02:23;;;;;;;;;5.00;5.00;;;;;15.68;53.74;102202.53;6304496;22;45718;-67
2021/10/23 14:05:09;;;;;;;;;;;;;;;;;;;;;
2021/10/23 14:08:14;;;;;;;;;;;;;;;;;;;;;
2021/10/23 14:10:54;;;;;;;;;;;;;;;;;;;;;
2021/10/23 14:13:35;;;;;;;;;6.25;6.00;;;;;15.63;53.30;102193.72;6308899;22;71420;-68
2021/10/23 14:16:20;;;;;;;;;;;;;;;;;;;;;
2021/10/23 14:19:04;;;;;;;;;;;;;;;;;;;;;